Time;durP1;ratioP1;P1;durP2;ratioP2;P2;SDS_P1;SDS_P2;PMS_P1;PMS_P2;Temp;Humidity;BMP_temperature;BMP_pressure;BME280_temperature;BME280_humidity;BME280_pressure;Samples;Min_cycle;Max_cycle;Signal;HPM_P1;HPM_P2
2021/10/23 00:03:34;;;;;;;3.33;0.70;;;;;;;6.22;74.22;100430.16;10505092;28;20063;-74
2021/10/23 00:08:36;;;;;;;4.88;1.00;;;;;;;6.10;75.35;100437.22;10505417;28;20048;-73
2021/10/23 00:13:37;;;;;;;4.20;0.68;;;;;;;6.09;75.98;100448.53;10504756;28;20049;-72
2021/10/23 00:18:39;;;;;;;2.85;0.80;;;;;;;6.13;75.88;100458.09;10503671;28;20123;-72
2021/10/23 00:23:40;;;;;;;2.40;0.70;;;;;;;6.02;76.59;100465.97;10504447;28;20049;-73
2021/10/23 00:28:42;;;;;;;3.90;1.02;;;;;;;5.97;76.85;100466.00;10502776;28;20094;-73
2021/10/23 00:33:44;;;;;;;3.97;0.70;;;;;;;5.99;77.32;100461.66;10503965;28;20460;-72
2021/10/23 00:38:45;;;;;;;5.25;0.70;;;;;;;6.06;77.69;100467.69;10504130;28;20098;-72
2021/10/23 00:43:47;;;;;;;3.42;0.63;;;;;;;6.03;77.88;100462.50;10503770;28;20041;-72
2021/10/23 00:48:49;;;;;;;2.70;0.70;;;;;;;5.92;78.47;100470.38;10503252;28;20047;-72
2021/10/23 00:53:51;;;;;;;3.72;0.90;;;;;;;6.03;78.81;100467.72;10503326;28;20047;-73
2021/10/23 00:58:52;;;;;;;5.72;0.80;;;;;;;5.99;78.85;100471.22;10503840;28;20478;-72
2021/10/23 01:03:54;;;;;;;3.70;1.10;;;;;;;6.03;78.50;100472.94;10502663;28;20050;-73
2021/10/23 01:08:56;;;;;;;6.40;0.90;;;;;;;5.90;79.57;100479.94;10502239;28;20045;-73
2021/10/23 01:13:58;;;;;;;3.55;0.88;;;;;;;6.01;78.91;100482.50;10501062;28;20056;-72
2021/10/23 01:18:59;;;;;;;5.22;1.15;;;;;;;6.17;78.66;100493.72;10502171;28;20048;-73
2021/10/23 01:24:03;;;;;;;5.07;1.55;;;;;;;6.10;78.97;100494.63;10501766;28;20036;-72
2021/10/23 01:29:07;;;;;;;4.88;1.17;;;;;;;6.13;78.57;100498.09;10501409;28;20106;-73
2021/10/23 01:34:11;;;;;;;4.40;1.20;;;;;;;6.23;78.26;100496.28;10500787;28;20048;-72
2021/10/23 01:39:13;;;;;;;4.35;1.00;;;;;;;6.03;78.69;100505.13;10499472;28;20041;-73
2021/10/23 01:44:16;;;;;;;3.42;1.00;;;;;;;6.09;78.33;100511.19;10499647;28;20052;-72
2021/10/23 01:49:17;;;;;;;6.05;1.42;;;;;;;6.15;77.83;100519.81;10498921;28;20058;-72
2021/10/23 01:54:19;;;;;;;3.97;1.00;;;;;;;6.08;78.08;100512.91;10500889;28;20086;-72
2021/10/23 01:59:21;;;;;;;4.82;1.60;;;;;;;6.07;77.72;100524.25;10500432;28;20037;-72
2021/10/23 02:04:22;;;;;;;4.30;1.00;;;;;;;6.00;77.59;100528.63;10500928;28;20048;-72
2021/10/23 02:09:24;;;;;;;5.78;1.20;;;;;;;5.88;78.15;100538.22;10500220;28;20475;-72
2021/10/23 02:14:25;;;;;;;5.35;1.00;;;;;;;5.90;77.54;100537.34;10499476;28;20486;-72
2021/10/23 02:19:27;;;;;;;4.40;0.75;;;;;;;5.85;78.01;100535.63;10499198;28;20040;-72
2021/10/23 02:24:28;;;;;;;5.78;0.90;;;;;;;5.85;77.47;100536.50;10499438;28;20044;-72
2021/10/23 02:29:30;;;;;;;8.68;1.27;;;;;;;5.82;77.45;100547.81;10498777;28;20055;-72
2021/10/23 02:34:32;;;;;;;6.68;1.15;;;;;;;5.79;76.97;100555.63;10499616;28;20102;-73
2021/10/23 02:39:33;;;;;;;6.88;1.38;;;;;;;5.79;76.95;100560.84;10498046;28;20093;-72
2021/10/23 02:44:35;;;;;;;7.90;1.20;;;;;;;5.70;77.30;100578.28;10499375;28;20056;-72
2021/10/23 02:49:39;;;;;;;6.32;1.30;;;;;;;5.61;77.37;100571.34;10498836;28;20048;-72
2021/10/23 02:54:41;;;;;;;7.05;1.10;;;;;;;5.62;77.51;100578.28;10498549;28;20048;-73
2021/10/23 02:59:43;;;;;;;5.22;1.50;;;;;;;5.47;77.40;100576.59;10498615;28;20186;-73
2021/10/23 03:04:45;;;;;;;7.93;1.48;;;;;;;5.49;77.34;100574.88;10498292;28;20067;-73
2021/10/23 03:09:46;;;;;;;6.70;1.30;;;;;;;5.44;77.06;100594.00;10498795;28;20040;-73
2021/10/23 03:14:48;;;;;;;6.80;1.42;;;;;;;5.41;77.25;100594.88;10498068;28;20053;-72
2021/10/23 03:19:50;;;;;;;3.40;0.82;;;;;;;5.39;77.37;100603.56;10496785;28;20123;-72
2021/10/23 03:24:52;;;;;;;4.28;1.15;;;;;;;5.36;77.57;100607.06;10496529;28;20048;-72
2021/10/23 03:29:53;;;;;;;5.10;1.20;;;;;;;5.36;77.43;100617.50;10498667;28;20112;-72
2021/10/23 03:34:59;;;;;;;7.78;1.10;;;;;;;5.36;77.54;100624.41;10497970;28;20063;-72
2021/10/23 03:40:04;;;;;;;6.50;1.05;;;;;;;5.33;77.39;100633.13;10498088;28;20124;-74
2021/10/23 03:45:06;;;;;;;8.30;1.55;;;;;;;5.25;77.81;100638.34;10496493;28;20525;-72
2021/10/23 03:50:09;;;;;;;6.78;1.17;;;;;;;5.21;77.68;100641.81;10498087;28;20041;-72
2021/10/23 03:55:11;;;;;;;12.18;1.25;;;;;;;5.19;77.86;100653.13;10496002;28;20048;-72
2021/10/23 04:00:13;;;;;;;13.52;1.63;;;;;;;5.15;78.17;100659.19;10497490;28;20120;-73
2021/10/23 04:05:15;;;;;;;6.55;1.88;;;;;;;5.19;77.77;100653.97;10497221;28;20068;-71
2021/10/23 04:10:17;;;;;;;13.15;2.67;;;;;;;5.20;77.72;100668.75;10503116;28;20041;-70
2021/10/23 04:15:19;;;;;;;7.43;1.77;;;;;;;5.13;77.78;100666.13;10502941;28;20121;-71
2021/10/23 04:20:20;;;;;;;5.72;1.20;;;;;;;5.24;77.59;100672.22;10503930;28;20505;-71
2021/10/23 04:25:22;;;;;;;6.13;1.15;;;;;;;5.23;77.49;100667.88;10502625;28;20453;-71
2021/10/23 04:30:23;;;;;;;11.52;2.40;;;;;;;5.19;77.43;100668.75;10503593;28;20498;-71
2021/10/23 04:35:25;;;;;;;8.25;1.70;;;;;;;5.17;77.37;100683.50;10503551;28;20071;-71
2021/10/23 04:40:26;;;;;;;9.80;1.48;;;;;;;5.24;77.28;100690.47;10504223;28;20048;-71
2021/10/23 04:45:28;;;;;;;5.60;1.35;;;;;;;5.12;77.67;100691.31;10501972;28;20048;-71
2021/10/23 04:50:29;;;;;;;7.43;1.75;;;;;;;5.14;77.65;100696.56;10503244;28;20040;-71
2021/10/23 04:55:31;;;;;;;10.43;1.95;;;;;;;5.09;77.76;100706.97;10504093;28;20109;-71
2021/10/23 05:00:33;;;;;;;6.85;1.70;;;;;;;5.17;77.51;100706.97;10503199;28;20048;-71
2021/10/23 05:05:34;;;;;;;6.20;1.83;;;;;;;5.16;77.51;100718.25;10503426;28;20041;-70
2021/10/23 05:10:36;;;;;;;9.85;1.40;;;;;;;5.10;77.93;100713.91;10501757;28;20498;-71
2021/10/23 05:15:38;;;;;;;13.07;2.08;;;;;;;5.07;78.23;100721.72;10503151;28;20063;-70
2021/10/23 05:20:39;;;;;;;9.82;2.05;;;;;;;5.18;78.16;100716.50;10501409;28;20139;-71
2021/10/23 05:25:41;;;;;;;6.70;1.42;;;;;;;5.28;77.54;100715.69;10503218;28;20123;-72
2021/10/23 05:30:42;;;;;;;15.10;1.80;;;;;;;5.36;77.09;100731.28;10503417;28;20505;-70
2021/10/23 05:35:44;;;;;;;5.65;1.58;;;;;;;5.37;77.21;100731.31;10501448;28;20055;-70
2021/10/23 05:40:46;;;;;;;12.52;1.95;;;;;;;5.41;76.84;100725.25;10502650;28;20068;-71
2021/10/23 05:45:48;;;;;;;8.23;2.35;;;;;;;5.33;77.24;100740.00;10501736;28;20139;-71
2021/10/23 05:50:53;;;;;;;8.82;1.65;;;;;;;5.23;77.42;100746.94;10501871;28;20047;-70
2021/10/23 05:55:54;;;;;;;17.98;1.75;;;;;;;5.20;77.52;100739.13;10500091;28;20044;-71
2021/10/23 06:01:07;;;;;;;10.50;1.83;;;;;;;5.16;77.76;100744.31;10500611;28;20514;-71
2021/10/23 06:06:09;;;;;;;7.63;1.42;;;;;;;5.12;77.70;100737.38;10502316;28;20474;-71
2021/10/23 06:11:11;;;;;;;6.45;1.77;;;;;;;5.14;77.56;100746.06;10500219;28;20040;-71
2021/10/23 06:16:14;;;;;;;6.78;1.80;;;;;;;5.20;77.24;100746.06;10500885;28;20072;-70
2021/10/23 06:21:16;;;;;;;7.80;2.13;;;;;;;5.13;77.63;100755.59;10500319;28;20120;-70
2021/10/23 06:26:17;;;;;;;8.35;1.58;;;;;;;5.17;77.51;100759.94;10500761;28;20041;-71
2021/10/23 06:31:19;;;;;;;8.95;1.90;;;;;;;5.24;77.38;100779.09;10500789;28;20053;-71
2021/10/23 06:36:21;;;;;;;11.10;1.88;;;;;;;5.25;77.25;100775.63;10500168;28;20086;-72
2021/10/23 06:41:22;;;;;;;7.70;1.67;;;;;;;5.41;76.53;100795.63;10500693;28;20051;-71
2021/10/23 06:46:24;;;;;;;7.85;1.92;;;;;;;5.51;76.21;100788.69;10501270;28;20047;-70
2021/10/23 06:51:25;;;;;;;11.55;2.28;;;;;;;5.52;76.25;100806.94;10500705;28;20085;-70
2021/10/23 06:56:28;;;;;;;5.53;1.60;;;;;;;5.65;75.76;100810.44;10501192;28;20044;-71
2021/10/23 07:01:30;;;;;;;9.65;2.38;;;;;;;5.71;75.47;100828.72;10500698;28;20059;-70
2021/10/23 07:06:32;;;;;;;9.52;2.75;;;;;;;5.81;74.93;100824.34;10504041;28;20405;-71
2021/10/23 07:11:33;;;;;;;7.45;1.50;;;;;;;5.81;74.96;100834.78;10501741;28;20054;-71
2021/10/23 07:16:35;;;;;;;8.10;1.83;;;;;;;5.98;74.36;100827.88;10501786;28;20465;-70
2021/10/23 07:21:36;;;;;;;11.02;2.00;;;;;;;6.02;73.81;100855.72;10501748;28;20040;-70
2021/10/23 07:26:38;;;;;;;7.88;1.98;;;;;;;6.14;73.87;100848.72;10501545;28;20045;-71
2021/10/23 07:31:40;;;;;;;9.13;1.75;;;;;;;6.36;72.26;100868.72;10502268;28;20090;-71
2021/10/23 07:36:42;;;;;;;9.57;1.63;;;;;;;6.40;72.17;100864.38;10501832;28;20040;-70
2021/10/23 07:41:45;;;;;;;5.35;1.80;;;;;;;6.45;72.67;100888.75;10502353;28;20409;-71
2021/10/23 07:46:46;;;;;;;6.55;1.60;;;;;;;6.70;71.55;100889.56;10508830;28;20464;-70
2021/10/23 07:51:48;;;;;;;8.80;1.95;;;;;;;6.79;70.44;100893.03;10506754;28;20041;-71
2021/10/23 07:56:49;;;;;;;9.55;1.90;;;;;;;6.83;70.48;100914.81;10507711;28;20052;-71
2021/10/23 08:01:51;;;;;;;8.77;2.42;;;;;;;6.87;70.11;100916.53;10506657;28;20110;-70
2021/10/23 08:06:53;;;;;;;9.05;1.75;;;;;;;6.70;71.31;100911.34;10506682;28;20045;-70
2021/10/23 08:11:54;;;;;;;8.52;1.58;;;;;;;6.82;70.73;100915.69;10506731;28;20051;-70
2021/10/23 08:16:57;;;;;;;12.23;2.15;;;;;;;6.82;71.14;100918.31;10506930;28;20082;-70
2021/10/23 08:22:00;;;;;;;6.40;1.85;;;;;;;7.05;69.68;100921.72;10507329;28;20090;-70
2021/10/23 08:27:01;;;;;;;9.27;1.63;;;;;;;7.21;69.35;100919.88;10505753;28;20052;-71
2021/10/23 08:32:03;;;;;;;7.03;2.28;;;;;;;7.44;69.03;100943.38;10504325;28;20106;-70
2021/10/23 08:37:04;;;;;;;5.70;1.60;;;;;;;7.58;68.84;100959.00;10506316;28;20080;-70
2021/10/23 08:42:08;;;;;;;10.00;2.15;;;;;;;7.69;68.45;100951.94;10506229;28;20498;-70
2021/10/23 08:47:11;;;;;;;7.07;1.98;;;;;;;7.81;67.39;100953.63;10505786;28;20110;-71
2021/10/23 08:52:13;;;;;;;6.20;2.05;;;;;;;7.84;68.75;100969.34;10505387;28;20139;-71
2021/10/23 08:57:15;;;;;;;11.27;1.95;;;;;;;7.97;66.95;100976.22;10481915;28;20124;-71
2021/10/23 09:02:19;;;;;;;6.88;1.80;;;;;;;7.99;67.27;100971.84;10464439;28;20056;-70
2021/10/23 09:07:23;;;;;;;3.78;1.40;;;;;;;8.01;67.55;100988.44;10463740;28;20136;-71
2021/10/23 09:12:30;;;;;;;11.05;1.83;;;;;;;8.24;67.39;100983.03;10482178;28;20540;-71
2021/10/23 09:17:33;;;;;;;7.45;1.95;;;;;;;8.56;65.18;100974.94;10435020;28;20550;-71
2021/10/23 09:22:42;;;;;;;9.13;1.50;;;;;;;8.55;65.39;100994.19;10485856;28;20044;-70
2021/10/23 09:28:12;;;;;;;7.50;1.60;;;;;;;8.36;65.47;100984.69;10503686;28;20059;-71
2021/10/23 09:33:15;;;;;;;9.75;1.90;;;;;;;8.63;64.91;100985.38;10500536;28;20071;-70
2021/10/23 09:38:19;;;;;;;7.63;2.33;;;;;;;8.68;65.19;100983.59;10502919;28;20056;-71
2021/10/23 09:43:29;;;;;;;8.05;1.73;;;;;;;8.69;64.57;100996.69;10494487;28;20059;-71
2021/10/23 09:48:44;;;;;;;7.97;2.42;;;;;;;8.72;65.04;101012.41;10462685;28;20044;-71
2021/10/23 09:53:49;;;;;;;7.20;1.60;;;;;;;8.75;64.37;101012.34;10462047;28;20134;-71
2021/10/23 09:58:57;;;;;;;8.95;1.60;;;;;;;8.86;64.37;101025.38;10468184;28;20045;-71
2021/10/23 10:04:06;;;;;;;12.15;1.75;;;;;;;9.00;63.92;101009.50;10493055;22;20171;-72
2021/10/23 10:09:10;;;;;;;7.65;1.50;;;;;;;9.23;63.30;101004.03;10458096;28;20508;-71
2021/10/23 10:14:12;;;;;;;8.77;1.70;;;;;;;9.16;63.52;101016.31;10457354;28;20045;-72
2021/10/23 10:19:15;;;;;;;7.78;1.83;;;;;;;9.31;62.27;101010.06;10455889;28;20098;-71
2021/10/23 10:24:32;;;;;;;9.50;2.00;;;;;;;9.27;63.50;101017.09;10457227;28;20048;-72
2021/10/23 10:29:56;;;;;;;8.80;1.60;;;;;;;9.47;62.86;101008.97;10457118;28;20091;-71
2021/10/23 10:35:53;;;;;;;5.35;1.50;;;;;;;10.04;60.37;101011.75;10457165;28;20053;-72
2021/10/23 10:45:41;;;;;;;9.50;2.27;;;;;;;10.55;59.57;101016.31;10456869;28;20053;-71
2021/10/23 10:50:48;;;;;;;8.82;2.10;;;;;;;11.13;56.35;101023.19;10457541;28;20037;-71
2021/10/23 10:55:50;;;;;;;;;;;;;;;11.12;57.78;101026.72;10456860;28;20044;-71
2021/10/23 11:01:00;;;;;;;5.75;1.40;;;;;;;11.35;55.10;101048.22;10456228;28;19920;-72
2021/10/23 11:06:30;;;;;;;5.45;1.77;;;;;;;10.50;57.07;101047.06;10456465;28;20041;-72
2021/10/23 11:11:57;;;;;;;4.38;1.45;;;;;;;10.50;58.21;101053.19;10455214;28;20045;-71
2021/10/23 11:17:14;;;;;;;6.40;1.30;;;;;;;10.85;56.46;101052.63;10459886;28;20044;-70
2021/10/23 11:22:20;;;;;;;6.22;1.50;;;;;;;10.86;55.74;101059.63;10464102;28;20052;-71
2021/10/23 11:27:46;;;;;;;7.32;2.17;;;;;;;11.21;53.83;101046.75;10463730;28;20057;-71
2021/10/23 11:32:57;;;;;;;6.22;1.45;;;;;;;10.33;57.12;101061.31;10464361;28;20052;-73
2021/10/23 11:38:00;;;;;;;4.57;1.33;;;;;;;10.50;57.05;101047.06;10464213;28;20048;-70
2021/10/23 11:43:02;;;;;;;6.03;1.30;;;;;;;10.49;57.42;101047.94;10463859;28;20116;-70
2021/10/23 11:48:07;;;;;;;8.52;1.73;;;;;;;10.35;56.68;101056.03;10464400;28;20543;-70
2021/10/23 11:53:23;;;;;;;7.20;1.60;;;;;;;10.20;56.96;101067.59;10463361;28;20041;-70
2021/10/23 11:58:28;;;;;;;5.05;1.40;;;;;;;10.26;56.17;101058.78;10463599;28;20052;-70
2021/10/23 12:03:41;;;;;;;6.20;1.63;;;;;;;10.25;56.58;101057.91;10462496;28;20037;-70
2021/10/23 12:08:43;;;;;;;8.38;1.42;;;;;;;10.25;57.18;101075.44;10462398;28;20406;-71
2021/10/23 12:13:49;;;;;;;7.75;1.40;;;;;;;10.31;57.20;101063.09;10462131;28;20087;-71
2021/10/23 12:19:11;;;;;;;5.90;1.30;;;;;;;10.02;59.17;101071.34;10463307;28;20048;-71
2021/10/23 12:24:33;;;;;;;10.25;2.50;;;;;;;9.95;59.34;101090.69;10462396;28;20048;-70
2021/10/23 12:29:45;;;;;;;6.85;1.85;;;;;;;10.19;58.53;101080.75;10459631;28;20487;-70
2021/10/23 12:34:50;;;;;;;6.32;1.50;;;;;;;10.61;56.81;101077.53;10461622;28;20540;-70
2021/10/23 12:40:11;;;;;;;9.93;1.30;;;;;;;10.68;57.34;101072.19;10481562;28;20174;-70
2021/10/23 12:45:16;;;;;;;5.20;1.33;;;;;;;10.56;55.01;101089.03;10456308;28;20056;-70
2021/10/23 12:50:27;;;;;;;4.68;1.27;;;;;;;10.34;55.87;101086.69;10501084;28;20539;-70
2021/10/23 12:55:29;;;;;;;4.85;1.38;;;;;;;10.62;56.82;101088.91;10474416;28;20072;-70
2021/10/23 13:00:31;;;;;;;5.65;1.27;;;;;;;10.57;56.33;101085.50;10458922;28;20075;-70
2021/10/23 13:05:33;;;;;;;5.25;1.20;;;;;;;10.38;56.88;101087.53;10460079;28;20048;-70
2021/10/23 13:10:34;;;;;;;8.68;1.20;;;;;;;10.34;57.54;101084.06;10471344;28;20043;-71
2021/10/23 13:15:36;;;;;;;6.90;1.73;;;;;;;10.46;57.09;101080.41;10501100;28;20106;-71
2021/10/23 13:20:38;;;;;;;5.00;1.45;;;;;;;10.44;57.24;101090.06;10501486;28;20051;-72
2021/10/23 13:25:40;;;;;;;10.98;2.00;;;;;;;10.38;57.54;101089.28;10462064;28;20037;-71
2021/10/23 13:30:42;;;;;;;5.55;1.40;;;;;;;10.47;58.07;101097.91;10459708;28;20379;-71
2021/10/23 13:35:44;;;;;;;10.18;2.05;;;;;;;10.47;57.83;101100.53;10459890;28;20079;-71
2021/10/23 13:40:46;;;;;;;3.65;1.10;;;;;;;10.45;58.15;101096.22;10459142;28;20048;-72
2021/10/23 13:45:49;;;;;;;7.00;1.85;;;;;;;10.39;57.89;101098.91;10478689;28;20131;-71
2021/10/23 13:50:50;;;;;;;7.20;2.38;;;;;;;10.41;58.52;101111.16;10500052;28;20489;-71
2021/10/23 13:55:52;;;;;;;8.63;2.15;;;;;;;10.28;59.07;101113.06;10493746;28;20037;-71
2021/10/23 14:00:54;;;;;;;5.03;1.75;;;;;;;10.31;59.77;101118.28;10458377;28;20455;-71
2021/10/23 14:05:57;;;;;;;5.25;1.80;;;;;;;10.31;59.61;101117.41;10458165;28;20049;-70
2021/10/23 14:10:58;;;;;;;7.57;2.03;;;;;;;10.18;60.19;101132.44;10458233;28;20453;-70
2021/10/23 14:16:01;;;;;;;9.40;4.10;;;;;;;10.32;60.17;101137.56;10456434;28;20124;-71
2021/10/23 14:21:03;;;;;;;13.10;2.55;;;;;;;10.16;61.03;101142.09;10457302;28;20136;-70
2021/10/23 14:26:06;;;;;;;5.85;1.77;;;;;;;10.00;61.00;101136.13;10457145;28;20114;-71
2021/10/23 14:31:10;;;;;;;5.30;1.67;;;;;;;10.01;60.71;101145.78;10456909;28;20052;-72
2021/10/23 14:36:13;;;;;;;7.93;2.08;;;;;;;10.07;59.60;101161.47;10457894;28;20053;-70
2021/10/23 14:41:15;;;;;;;3.97;1.30;;;;;;;9.88;60.90;101167.81;10457327;28;20047;-71
2021/10/23 14:46:17;;;;;;;6.18;1.80;;;;;;;10.00;60.46;101183.41;10481399;28;20041;-71
2021/10/23 14:51:18;;;;;;;6.25;1.33;;;;;;;9.70;61.63;101186.41;10480140;28;20048;-71
2021/10/23 14:56:20;;;;;;;4.20;1.10;;;;;;;9.70;62.06;101196.91;10496799;28;20452;-70
2021/10/23 15:01:22;;;;;;;5.53;1.50;;;;;;;9.78;62.36;101187.16;10497392;28;20064;-71
2021/10/23 15:06:24;;;;;;;6.93;3.70;;;;;;;9.80;62.01;101198.53;10498030;28;20048;-70
2021/10/23 15:11:25;;;;;;;5.07;1.73;;;;;;;9.45;63.45;101193.63;10498221;28;20044;-72
2021/10/23 15:16:27;;;;;;;6.82;1.85;;;;;;;9.37;63.94;101201.53;10498283;28;20049;-71
2021/10/23 15:21:29;;;;;;;6.18;1.90;;;;;;;9.44;64.04;101202.38;10498092;28;20051;-71
2021/10/23 15:26:30;;;;;;;9.25;2.90;;;;;;;9.22;64.43;101202.53;10498145;28;20098;-71
2021/10/23 15:31:32;;;;;;;11.07;2.80;;;;;;;9.23;64.07;101213.91;10498578;28;20044;-70
2021/10/23 15:36:34;;;;;;;10.27;2.30;;;;;;;9.16;64.38;101218.31;10498613;28;20094;-71
2021/10/23 15:41:49;;;;;;;10.25;2.63;;;;;;;9.19;63.66;101223.53;10498725;28;20040;-71
2021/10/23 15:46:51;;;;;;;5.70;2.15;;;;;;;9.16;63.91;101238.44;10498260;28;20095;-72
2021/10/23 15:51:53;;;;;;;6.68;1.65;;;;;;;9.22;63.72;101241.03;10498192;28;20037;-71
2021/10/23 15:56:55;;;;;;;4.82;1.10;;;;;;;9.12;64.50;101239.31;10497542;28;20416;-70
2021/10/23 16:01:57;;;;;;;2.75;1.00;;;;;;;9.05;64.56;101247.25;10498303;28;20049;-71
2021/10/23 16:06:59;;;;;;;3.33;1.23;;;;;;;8.88;65.41;101258.72;10488262;22;20041;-70
2021/10/23 16:12:01;;;;;;;3.85;1.52;;;;;;;8.69;66.32;101265.81;10464719;28;20068;-70
2021/10/23 16:17:04;;;;;;;5.47;1.80;;;;;;;8.90;65.50;101270.94;10464391;28;20048;-70
2021/10/23 16:22:05;;;;;;;3.78;1.58;;;;;;;8.72;66.50;101273.63;10464742;28;20049;-70
2021/10/23 16:27:07;;;;;;;6.90;1.88;;;;;;;8.82;65.95;101277.97;10464498;28;20103;-69
2021/10/23 16:32:09;;;;;;;5.28;2.42;;;;;;;8.76;66.39;101281.47;10463957;28;20041;-70
2021/10/23 16:37:11;;;;;;;4.38;1.73;;;;;;;8.76;66.00;101283.22;10463252;28;20047;-70
2021/10/23 16:42:12;;;;;;;5.82;1.90;;;;;;;8.59;67.13;101289.44;10463483;28;20208;-70
2021/10/23 16:47:15;;;;;;;5.50;2.03;;;;;;;8.60;67.17;101306.03;10463754;28;20064;-70
2021/10/23 16:52:16;;;;;;;4.53;2.28;;;;;;;8.65;67.12;101303.38;10462604;28;20549;-71
2021/10/23 16:57:18;;;;;;;8.88;6.70;;;;;;;8.57;67.88;101319.13;10464084;28;20041;-70
2021/10/23 17:02:19;;;;;;;6.10;1.73;;;;;;;8.50;68.67;101323.53;10461654;28;20083;-70
2021/10/23 17:07:21;;;;;;;3.63;1.30;;;;;;;8.46;69.08;101324.41;10462600;28;20406;-71
2021/10/23 17:12:23;;;;;;;6.30;2.08;;;;;;;8.56;69.09;101335.75;10463971;28;20391;-70
2021/10/23 17:17:25;;;;;;;3.60;1.45;;;;;;;8.66;68.66;101340.06;10463700;28;20044;-69
2021/10/23 17:22:27;;;;;;;4.13;1.48;;;;;;;8.61;69.34;101340.97;10465417;28;20102;-70
2021/10/23 17:27:28;;;;;;;3.95;1.63;;;;;;;8.53;69.55;101341.84;10462577;28;20070;-71
2021/10/23 17:32:30;;;;;;;5.07;1.40;;;;;;;8.55;70.08;101355.84;10462075;28;20045;-71
2021/10/23 17:37:31;;;;;;;4.22;1.88;;;;;;;8.51;70.28;101355.84;10462428;28;20048;-70
2021/10/23 17:42:33;;;;;;;5.43;2.60;;;;;;;8.05;71.90;101363.72;10460672;28;20098;-70
2021/10/23 17:47:35;;;;;;;4.40;2.35;;;;;;;7.95;72.51;101373.31;10461627;28;20495;-70
2021/10/23 17:52:36;;;;;;;7.03;2.40;;;;;;;8.14;72.00;101379.41;10461807;28;20041;-70
2021/10/23 17:57:39;;;;;;;5.68;2.55;;;;;;;8.28;71.44;101382.94;10461044;28;20048;-71
2021/10/23 18:02:42;;;;;;;7.22;2.75;;;;;;;8.28;71.46;101382.94;10460049;28;20041;-70
2021/10/23 18:07:48;;;;;;;5.28;2.13;;;;;;;8.18;72.02;101390.78;10460982;28;20088;-70
2021/10/23 18:12:49;;;;;;;5.72;2.10;;;;;;;8.09;72.43;101395.13;10460981;28;20044;-70
2021/10/23 18:18:05;;;;;;;7.32;2.75;;;;;;;8.25;72.49;101396.03;10461909;28;20040;-70
2021/10/23 18:23:08;;;;;;;7.25;2.90;;;;;;;8.09;73.26;101394.28;10461327;28;20041;-70
2021/10/23 18:28:12;;;;;;;5.35;2.30;;;;;;;8.18;72.93;101390.78;10459859;28;20513;-70
2021/10/23 18:33:14;;;;;;;6.88;3.10;;;;;;;8.16;72.90;101388.16;10459648;28;20099;-70
2021/10/23 18:38:22;;;;;;;6.75;2.63;;;;;;;8.00;73.18;101394.28;10459123;28;20052;-70
2021/10/23 18:43:24;;;;;;;8.55;3.53;;;;;;;8.15;72.13;101390.81;10459242;28;20044;-71
2021/10/23 18:48:26;;;;;;;8.98;3.38;;;;;;;8.12;72.03;101391.66;10457476;28;20063;-70
2021/10/23 18:53:27;;;;;;;6.43;2.97;;;;;;;8.07;71.98;101386.41;10458598;28;20479;-70
2021/10/23 18:58:31;;;;;;;7.72;3.10;;;;;;;8.18;71.16;101385.53;10459199;28;20049;-70
2021/10/23 19:03:33;;;;;;;4.25;2.45;;;;;;;8.05;71.46;101389.91;10458887;28;20498;-71
2021/10/23 19:08:35;;;;;;;5.65;2.72;;;;;;;7.96;71.53;101393.38;10458929;28;20394;-70
2021/10/23 19:13:37;;;;;;;5.43;2.95;;;;;;;7.87;71.74;101395.13;10457263;28;20076;-70
2021/10/23 19:18:38;;;;;;;4.13;2.75;;;;;;;7.84;71.45;101394.28;10459717;28;20552;-70
2021/10/23 19:23:40;;;;;;;8.50;2.90;;;;;;;7.95;70.77;101402.13;10457833;28;20075;-70
2021/10/23 19:28:42;;;;;;;6.82;3.22;;;;;;;7.90;70.95;101410.84;10459082;28;20041;-71
2021/10/23 19:33:44;;;;;;;11.13;3.28;;;;;;;7.80;71.21;101405.59;10456318;28;20083;-70
2021/10/23 19:38:46;;;;;;;6.45;3.05;;;;;;;7.89;70.64;101415.22;10463016;28;20556;-70
2021/10/23 19:43:47;;;;;;;4.93;2.42;;;;;;;7.96;70.39;101416.94;10465977;28;20151;-70
2021/10/23 19:48:49;;;;;;;5.53;2.50;;;;;;;8.00;70.20;101418.69;10465246;28;20059;-70
2021/10/23 19:53:51;;;;;;;6.18;2.55;;;;;;;7.92;70.40;101423.06;10465817;28;20049;-70
2021/10/23 19:58:53;;;;;;;9.27;3.33;;;;;;;7.93;70.24;101430.06;10465444;28;20073;-70
2021/10/23 20:03:55;;;;;;;8.45;2.95;;;;;;;8.12;69.51;101438.81;10464553;28;20544;-70
2021/10/23 20:08:57;;;;;;;6.47;2.35;;;;;;;8.00;70.22;101433.53;10463950;28;20063;-71
2021/10/23 20:13:59;;;;;;;5.80;2.40;;;;;;;7.98;70.12;101437.91;10463889;28;20052;-70
2021/10/23 20:19:01;;;;;;;5.30;2.47;;;;;;;7.84;70.51;101451.00;10465044;28;20490;-70
2021/10/23 20:24:03;;;;;;;6.55;2.70;;;;;;;7.58;71.70;101457.03;10464333;28;20467;-71
2021/10/23 20:29:04;;;;;;;4.60;2.53;;;;;;;7.45;72.42;101464.84;10464884;28;20490;-69
2021/10/23 20:34:06;;;;;;;5.57;2.33;;;;;;;7.28;73.06;101457.78;10464634;28;20041;-70
2021/10/23 20:39:08;;;;;;;7.00;3.20;;;;;;;7.19;73.60;101460.34;10463670;28;20044;-71
2021/10/23 20:44:10;;;;;;;5.60;2.88;;;;;;;7.17;73.69;101455.97;10462928;28;20494;-70
2021/10/23 20:49:12;;;;;;;8.07;3.85;;;;;;;7.42;73.96;101468.28;10462349;28;20056;-70
2021/10/23 20:54:14;;;;;;;5.68;3.92;;;;;;;7.28;73.67;101465.63;10462668;28;20065;-70
2021/10/23 20:59:16;;;;;;;5.20;3.70;;;;;;;7.12;74.74;101471.63;10463203;28;20052;-70
2021/10/23 21:04:18;;;;;;;7.22;3.90;;;;;;;6.96;75.53;101478.53;10462763;28;20043;-70
2021/10/23 21:09:21;;;;;;;4.75;4.10;;;;;;;7.03;75.60;101484.66;10462464;28;20045;-70
2021/10/23 21:14:23;;;;;;;5.35;3.92;;;;;;;6.91;76.16;101482.88;10461371;28;20037;-70
2021/10/23 21:19:24;;;;;;;12.60;4.25;;;;;;;6.76;76.78;101493.19;10460975;28;20414;-70
2021/10/23 21:24:26;;;;;;;4.07;2.88;;;;;;;6.69;77.30;101491.41;10460870;28;20586;-71
2021/10/23 21:29:28;;;;;;;4.85;3.10;;;;;;;6.77;77.10;101500.16;10464819;28;20045;-70
2021/10/23 21:34:30;;;;;;;6.13;2.83;;;;;;;7.17;74.91;101493.47;10462169;28;20514;-70
2021/10/23 21:39:32;;;;;;;8.52;3.00;;;;;;;7.25;74.19;101501.34;10444236;28;20045;-72
2021/10/23 21:44:40;;;;;;;6.13;2.90;;;;;;;6.98;75.87;101497.69;10461301;28;20049;-70
2021/10/23 21:49:42;;;;;;;6.47;3.25;;;;;;;6.77;76.84;101494.94;10460965;28;20127;-71
2021/10/23 21:54:44;;;;;;;5.50;3.00;;;;;;;6.62;77.39;101492.22;10460862;28;20051;-70
2021/10/23 21:59:45;;;;;;;7.45;6.68;;;;;;;6.54;77.46;101489.53;10459009;28;20069;-71
2021/10/23 22:04:47;;;;;;;6.65;4.70;;;;;;;6.46;77.69;101493.81;10460939;28;20044;-71
2021/10/23 22:09:52;;;;;;;7.82;4.35;;;;;;;6.56;77.73;101493.94;10460890;28;20049;-70
2021/10/23 22:14:53;;;;;;;6.43;3.60;;;;;;;6.39;77.58;101490.31;10473588;23;20494;-74
2021/10/23 22:19:55;;;;;;;5.15;3.42;;;;;;;6.63;77.26;101496.59;10462322;28;20406;-75
2021/10/23 22:24:57;;;;;;;7.32;3.50;;;;;;;6.45;77.90;101498.19;10445734;28;20045;-73
2021/10/23 22:29:59;;;;;;;9.85;2.92;;;;;;;6.22;78.48;101510.16;10460892;28;20075;-74
2021/10/23 22:35:01;;;;;;;6.90;4.10;;;;;;;5.84;79.86;101510.59;10460420;28;20049;-74
2021/10/23 22:40:04;;;;;;;7.00;3.83;;;;;;;5.91;80.32;101501.13;10460288;28;20557;-74
2021/10/23 22:45:06;;;;;;;5.47;3.88;;;;;;;5.88;79.85;101509.78;10462150;28;20445;-73
2021/10/23 22:50:08;;;;;;;6.55;3.85;;;;;;;5.67;79.80;101505.22;10462676;28;20052;-73
2021/10/23 22:55:12;;;;;;;6.55;3.40;;;;;;;5.68;79.94;101496.50;10462034;28;20044;-72
2021/10/23 23:00:14;;;;;;;4.10;3.15;;;;;;;5.32;80.99;101513.47;10460124;28;20047;-74
2021/10/23 23:05:17;;;;;;;5.97;3.90;;;;;;;5.32;81.54;101516.06;10461403;28;20057;-72
2021/10/23 23:10:33;;;;;;;6.20;3.80;;;;;;;5.21;81.40;101507.22;10464910;28;20390;-73
2021/10/23 23:15:35;;;;;;;8.95;4.00;;;;;;;5.09;82.45;101507.06;10456748;28;20498;-73
2021/10/23 23:20:36;;;;;;;10.27;3.50;;;;;;;5.55;81.55;101508.53;10475124;28;20045;-74
2021/10/23 23:25:38;;;;;;;5.93;3.35;;;;;;;5.40;80.98;101510.97;10456528;28;20083;-74
2021/10/23 23:30:41;;;;;;;5.10;3.13;;;;;;;5.24;82.03;101506.38;10459162;28;20071;-74
2021/10/23 23:35:43;;;;;;;7.45;4.07;;;;;;;5.25;81.99;101509.00;10458868;28;20517;-74